Time;durP1;ratioP1;P1;durP2;ratioP2;P2;SDS_P1;SDS_P2;PMS_P1;PMS_P2;Temp;Humidity;BMP_temperature;BMP_pressure;BME280_temperature;BME280_humidity;BME280_pressure;Samples;Min_cycle;Max_cycle;Signal;HPM_P1;HPM_P2
2021/04/16 00:00:25;;;;;;;5.30;4.78;;;2.00;90.00;;;;;;5051090;28;20029;-67
2021/04/16 00:02:51;;;;;;;6.00;5.10;;;2.00;90.20;;;;;;5066482;28;20029;-67
2021/04/16 00:05:16;;;;;;;7.47;5.53;;;2.00;90.50;;;;;;5047782;28;20025;-66
2021/04/16 00:07:42;;;;;;;6.30;5.32;;;2.00;90.60;;;;;;5036176;28;20393;-67
2021/04/16 00:10:10;;;;;;;11.68;5.65;;;2.00;90.40;;;;;;5040572;28;20071;-67
2021/04/16 00:12:36;;;;;;;9.18;5.18;;;2.00;90.60;;;;;;5045420;28;20028;-67
2021/04/16 00:15:06;;;;;;;7.22;5.20;;;2.00;90.60;;;;;;5034178;28;20025;-67
2021/04/16 00:17:31;;;;;;;7.57;4.65;;;2.10;90.70;;;;;;5044537;28;20068;-67
2021/04/16 00:19:57;;;;;;;7.85;4.82;;;2.10;90.50;;;;;;5040156;28;20055;-68
2021/04/16 00:22:22;;;;;;;7.50;5.10;;;2.10;90.60;;;;;;5038242;28;20028;-67
2021/04/16 00:24:48;;;;;;;6.18;5.07;;;2.00;90.50;;;;;;5045452;28;20025;-67
2021/04/16 00:27:13;;;;;;;6.55;5.05;;;2.00;90.60;;;;;;5042363;28;20037;-68
2021/04/16 00:29:41;;;;;;;7.32;4.60;;;2.00;90.70;;;;;;5049708;28;20040;-67
2021/04/16 00:32:07;;;;;;;9.40;5.40;;;2.10;90.80;;;;;;5049701;28;20179;-67
2021/04/16 00:34:33;;;;;;;8.25;5.20;;;2.00;90.80;;;;;;5050866;28;20036;-67
2021/04/16 00:36:58;;;;;;;7.60;5.15;;;2.00;90.70;;;;;;5049784;28;20033;-67
2021/04/16 00:39:24;;;;;;;7.32;5.15;;;2.00;90.80;;;;;;5067640;28;20036;-67
2021/04/16 00:41:51;;;;;;;7.72;5.15;;;1.90;90.80;;;;;;5053429;28;20040;-67
2021/04/16 00:44:17;;;;;;;8.38;6.05;;;2.00;91.00;;;;;;5053135;28;20483;-67
2021/04/16 00:46:47;;;;;;;7.43;5.68;;;2.00;91.30;;;;;;5050247;28;20044;-65
2021/04/16 00:49:19;;;;;;;7.82;6.10;;;2.00;91.10;;;;;;5049557;28;20390;-66
2021/04/16 00:51:52;;;;;;;7.55;5.35;;;2.00;91.00;;;;;;5050675;28;20356;-66
2021/04/16 00:54:25;;;;;;;7.20;5.30;;;2.10;90.90;;;;;;5050613;28;20128;-66
2021/04/16 00:56:51;;;;;;;7.93;6.10;;;2.00;90.70;;;;;;5050086;28;20028;-67
2021/04/16 00:59:20;;;;;;;6.35;5.38;;;2.10;91.10;;;;;;5050574;28;20087;-67
2021/04/16 01:01:46;;;;;;;6.68;5.18;;;2.20;91.10;;;;;;5050702;28;20096;-67
2021/04/16 01:04:12;;;;;;;8.43;5.93;;;2.10;90.70;;;;;;5050332;28;20103;-67
2021/04/16 01:06:38;;;;;;;6.93;5.82;;;2.20;90.80;;;;;;5050786;28;20039;-67
2021/04/16 01:09:04;;;;;;;6.25;5.50;;;2.10;90.70;;;;;;5050416;28;20291;-67
2021/04/16 01:11:30;;;;;;;6.43;5.53;;;2.10;90.80;;;;;;5050311;28;20021;-67
2021/04/16 01:13:56;;;;;;;6.50;5.10;;;2.10;90.30;;;;;;5069998;28;20390;-66
2021/04/16 01:16:29;;;;;;;7.28;5.47;;;2.10;90.60;;;;;;5053637;28;20475;-67
2021/04/16 01:18:56;;;;;;;8.32;5.22;;;2.00;90.60;;;;;;5053956;28;20037;-67
2021/04/16 01:21:28;;;;;;;9.48;6.38;;;2.00;90.60;;;;;;5054383;28;20021;-67
2021/04/16 01:24:05;;;;;;;7.20;5.68;;;2.00;90.50;;;;;;5053866;28;20495;-67
2021/04/16 01:26:36;;;;;;;7.38;5.68;;;2.00;90.80;;;;;;5053314;28;20017;-67
2021/04/16 01:29:03;;;;;;;7.28;6.00;;;2.00;90.70;;;;;;5054040;28;20025;-66
2021/04/16 01:31:29;;;;;;;8.55;6.65;;;2.00;91.20;;;;;;5053954;28;20059;-66
2021/04/16 01:33:55;;;;;;;7.32;6.47;;;2.00;91.00;;;;;;5054083;28;20025;-66
2021/04/16 01:36:27;;;;;;;8.18;6.53;;;2.00;90.60;;;;;;5052972;28;20387;-67
2021/04/16 01:38:55;;;;;;;8.07;6.55;;;2.00;90.60;;;;;;5053786;28;20039;-67
2021/04/16 01:41:22;;;;;;;9.77;7.20;;;2.00;90.70;;;;;;5054211;28;20017;-66
2021/04/16 01:44:01;;;;;;;11.85;7.13;;;2.00;90.70;;;;;;5052435;28;20021;-67
2021/04/16 01:46:28;;;;;;;9.50;7.75;;;2.00;90.70;;;;;;5052840;28;20029;-67
2021/04/16 01:48:57;;;;;;;9.50;7.50;;;2.00;90.90;;;;;;5052223;28;20021;-66
2021/04/16 01:51:26;;;;;;;10.68;8.38;;;2.00;90.90;;;;;;5053876;28;20014;-66
2021/04/16 01:54:08;;;;;;;9.82;8.05;;;2.10;90.90;;;;;;5053749;28;20032;-67
2021/04/16 01:56:37;;;;;;;11.32;8.57;;;2.10;91.00;;;;;;5053048;28;20025;-67
2021/04/16 01:59:08;;;;;;;11.50;8.02;;;2.10;90.60;;;;;;5054000;28;20097;-67
2021/04/16 02:01:34;;;;;;;11.40;7.80;;;2.10;90.60;;;;;;5054334;28;20029;-67
2021/04/16 02:03:59;;;;;;;11.65;8.25;;;2.10;90.60;;;;;;5054011;28;20029;-67
2021/04/16 02:06:25;;;;;;;11.70;8.60;;;2.10;90.60;;;;;;5052331;28;20394;-67
2021/04/16 02:08:53;;;;;;;10.75;8.00;;;2.10;90.30;;;;;;5052161;28;20479;-68
2021/04/16 02:11:18;;;;;;;13.00;8.90;;;2.10;90.40;;;;;;5048439;28;20025;-67
2021/04/16 02:13:44;;;;;;;13.13;8.85;;;2.10;90.40;;;;;;5040800;28;20040;-67
2021/04/16 02:16:09;;;;;;;13.88;8.40;;;2.10;90.40;;;;;;5044990;28;20037;-68
2021/04/16 02:18:35;;;;;;;13.25;8.55;;;2.30;90.80;;;;;;5044769;28;20029;-67
2021/04/16 02:21:00;;;;;;;11.80;7.78;;;2.30;90.60;;;;;;5053553;28;20037;-66
2021/04/16 02:23:26;;;;;;;11.90;7.95;;;2.20;90.10;;;;;;5053136;28;20108;-68
2021/04/16 02:25:52;;;;;;;10.25;8.82;;;2.20;90.10;;;;;;5052201;28;20047;-68
2021/04/16 02:28:17;;;;;;;10.35;8.15;;;2.20;90.50;;;;;;5052294;28;20029;-67
2021/04/16 02:30:43;;;;;;;9.93;7.57;;;2.10;90.10;;;;;;5068317;28;20025;-67
2021/04/16 02:33:08;;;;;;;10.75;7.72;;;2.20;90.40;;;;;;5051141;28;20530;-67
2021/04/16 02:35:34;;;;;;;13.60;8.20;;;2.20;90.40;;;;;;5053042;28;20021;-67
2021/04/16 02:38:00;;;;;;;10.73;7.53;;;2.20;90.50;;;;;;5052002;28;20024;-67
2021/04/16 02:40:27;;;;;;;9.82;7.03;;;2.20;90.30;;;;;;5052877;28;20029;-67
2021/04/16 02:42:55;;;;;;;9.18;6.95;;;2.40;90.30;;;;;;5052235;28;20025;-68
2021/04/16 02:45:23;;;;;;;10.27;7.68;;;2.30;90.30;;;;;;5052855;28;20445;-67
2021/04/16 02:47:49;;;;;;;9.60;7.38;;;2.30;90.40;;;;;;5051343;28;20082;-68
2021/04/16 02:50:20;;;;;;;9.50;7.60;;;2.30;90.30;;;;;;5052687;28;20029;-68
2021/04/16 02:52:45;;;;;;;9.60;7.37;;;2.30;90.30;;;;;;5052271;28;20039;-68
2021/04/16 02:55:12;;;;;;;10.80;7.30;;;2.20;90.20;;;;;;5052753;28;20029;-66
2021/04/16 02:57:38;;;;;;;9.27;7.97;;;2.20;90.40;;;;;;5051931;28;20033;-67
2021/04/16 03:00:07;;;;;;;10.23;8.10;;;2.30;90.50;;;;;;5052427;28;20020;-68
2021/04/16 03:02:33;;;;;;;11.90;7.25;;;2.30;90.80;;;;;;5052170;28;20028;-67
2021/04/16 03:04:58;;;;;;;11.60;8.40;;;2.30;90.40;;;;;;5050799;28;20029;-67
2021/04/16 03:07:26;;;;;;;11.23;7.68;;;2.30;90.20;;;;;;5050041;28;20078;-67
2021/04/16 03:09:52;;;;;;;10.00;7.78;;;2.30;90.30;;;;;;5067672;28;20029;-67
2021/04/16 03:12:17;;;;;;;12.13;8.57;;;2.20;90.40;;;;;;5052257;28;20138;-67
2021/04/16 03:14:43;;;;;;;10.40;8.18;;;2.20;90.30;;;;;;5051925;28;20487;-67
2021/04/16 03:17:08;;;;;;;112.45;68.85;;;2.20;90.30;;;;;;5051037;28;20024;-68
2021/04/16 03:19:34;;;;;;;52.17;32.33;;;2.20;90.40;;;;;;5052000;28;20398;-67
2021/04/16 03:22:01;;;;;;;10.65;8.10;;;2.30;90.50;;;;;;5051891;28;20083;-67
2021/04/16 03:24:27;;;;;;;9.55;6.97;;;2.20;90.30;;;;;;5050664;28;20177;-68
2021/04/16 03:26:52;;;;;;;10.75;7.88;;;2.20;90.10;;;;;;5050741;28;20021;-68
2021/04/16 03:29:18;;;;;;;12.70;8.32;;;2.20;90.30;;;;;;5051973;28;20017;-67
2021/04/16 03:31:46;;;;;;;11.15;7.38;;;2.20;90.40;;;;;;5051677;28;20047;-67
2021/04/16 03:34:11;;;;;;;191.75;100.85;;;2.30;90.50;;;;;;5051285;28;20025;-67
2021/04/16 03:36:37;;;;;;;15.23;9.55;;;2.10;90.40;;;;;;5050803;28;20040;-67
2021/04/16 03:39:04;;;;;;;10.20;7.00;;;2.20;90.70;;;;;;5051426;28;20037;-68
2021/04/16 03:41:29;;;;;;;12.75;8.00;;;2.20;90.70;;;;;;5051815;28;20040;-67
2021/04/16 03:43:55;;;;;;;11.30;7.88;;;2.20;90.90;;;;;;5052011;28;20025;-67
2021/04/16 03:46:21;;;;;;;10.20;7.78;;;2.20;90.50;;;;;;5066249;28;20397;-63
2021/04/16 03:48:46;;;;;;;11.02;7.07;;;2.20;90.60;;;;;;5050231;28;20099;-66
2021/04/16 03:51:12;;;;;;;10.80;7.18;;;2.30;90.50;;;;;;5051276;28;20025;-66
2021/04/16 03:53:40;;;;;;;13.48;7.53;;;2.20;90.50;;;;;;5051501;28;20467;-66
2021/04/16 03:56:08;;;;;;;12.63;7.20;;;2.30;90.70;;;;;;5050825;28;20479;-66
2021/04/16 03:58:35;;;;;;;13.07;7.82;;;2.30;90.50;;;;;;5051330;28;20028;-66
2021/04/16 04:01:01;;;;;;;9.63;7.57;;;2.30;90.40;;;;;;5050978;28;20087;-66
2021/04/16 04:03:26;;;;;;;8.82;6.47;;;2.20;90.20;;;;;;5051549;28;20017;-66
2021/04/16 04:05:52;;;;;;;10.52;7.57;;;2.10;90.00;;;;;;5051117;28;20100;-66
2021/04/16 04:08:17;;;;;;;12.40;7.70;;;2.10;90.70;;;;;;5050263;28;20067;-67
2021/04/16 04:10:43;;;;;;;13.23;7.85;;;2.20;90.80;;;;;;5066278;28;20112;-66
2021/04/16 04:13:12;;;;;;;12.55;7.40;;;2.20;90.60;;;;;;5050865;28;20320;-67
2021/04/16 04:15:38;;;;;;;11.43;7.20;;;2.30;90.70;;;;;;5050973;28;20035;-66
2021/04/16 04:18:07;;;;;;;11.10;7.90;;;2.30;90.80;;;;;;5050145;28;20025;-66
2021/04/16 04:20:36;;;;;;;11.40;7.65;;;2.20;90.50;;;;;;5049851;28;20495;-67
2021/04/16 04:23:05;;;;;;;11.75;8.23;;;2.20;90.50;;;;;;5050522;28;20029;-67
2021/04/16 04:25:32;;;;;;;10.23;7.40;;;2.10;90.60;;;;;;5050989;28;20028;-67
2021/04/16 04:28:00;;;;;;;12.20;7.60;;;2.10;90.70;;;;;;5049411;28;20049;-67
2021/04/16 04:30:29;;;;;;;9.98;7.15;;;2.10;90.50;;;;;;5033160;28;20025;-66
2021/04/16 04:32:55;;;;;;;10.73;7.40;;;2.20;90.60;;;;;;5047416;28;20522;-67
2021/04/16 04:35:21;;;;;;;10.27;7.40;;;2.20;90.50;;;;;;5050408;28;20027;-66
2021/04/16 04:37:47;;;;;;;13.02;6.95;;;2.20;90.60;;;;;;5049861;28;20386;-66
2021/04/16 04:40:14;;;;;;;10.35;7.47;;;2.20;90.70;;;;;;5050568;28;20101;-66
2021/04/16 04:42:40;;;;;;;11.23;7.18;;;2.30;90.80;;;;;;5050457;28;20119;-66
2021/04/16 04:45:06;;;;;;;12.35;8.05;;;2.20;90.50;;;;;;5050639;28;20466;-66
2021/04/16 04:47:35;;;;;;;12.48;9.02;;;2.20;90.90;;;;;;5051804;28;20025;-66
2021/04/16 04:50:00;;;;;;;11.68;8.40;;;2.30;90.90;;;;;;5053390;28;20052;-66
2021/04/16 04:52:30;;;;;;;12.00;8.13;;;2.30;90.80;;;;;;5054692;28;20499;-66
2021/04/16 04:54:57;;;;;;;10.95;7.60;;;2.30;90.90;;;;;;5054167;28;20029;-66
2021/04/16 04:57:25;;;;;;;11.38;7.90;;;2.30;90.80;;;;;;5052218;28;20036;-66
2021/04/16 04:59:51;;;;;;;10.38;8.05;;;2.30;91.10;;;;;;5054425;28;20509;-67
2021/04/16 05:02:18;;;;;;;11.63;7.97;;;2.40;90.80;;;;;;5054268;28;20032;-68
2021/04/16 05:04:44;;;;;;;12.23;8.77;;;2.30;90.80;;;;;;5054551;28;20021;-68
2021/04/16 05:07:10;;;;;;;11.60;7.50;;;2.40;90.80;;;;;;5053519;28;20037;-67
2021/04/16 05:09:36;;;;;;;9.07;7.15;;;2.40;90.60;;;;;;5054186;28;20382;-67
2021/04/16 05:12:01;;;;;;;10.50;7.38;;;2.30;90.50;;;;;;5057023;28;20017;-67
2021/04/16 05:14:28;;;;;;;10.98;6.70;;;2.30;90.50;;;;;;5057013;28;20518;-67
2021/04/16 05:16:54;;;;;;;12.40;8.02;;;2.30;90.40;;;;;;5069772;28;20070;-67
2021/04/16 05:19:19;;;;;;;9.80;7.45;;;2.30;90.30;;;;;;5054117;28;20081;-67
2021/04/16 05:21:45;;;;;;;11.90;8.20;;;2.30;90.70;;;;;;5054193;28;20471;-67
2021/04/16 05:24:14;;;;;;;13.20;7.97;;;2.30;90.80;;;;;;5052724;28;20032;-67
2021/04/16 05:26:40;;;;;;;14.43;8.27;;;2.20;91.00;;;;;;5052956;28;20017;-67
2021/04/16 05:29:07;;;;;;;13.98;8.30;;;2.30;91.10;;;;;;5051920;28;20482;-68
2021/04/16 05:31:33;;;;;;;12.52;8.65;;;2.20;91.10;;;;;;5053410;28;20428;-68
2021/04/16 05:33:59;;;;;;;12.55;8.90;;;2.30;90.90;;;;;;5053443;28;20021;-67
2021/04/16 05:36:25;;;;;;;11.52;8.13;;;2.30;91.20;;;;;;5051888;28;20039;-66
2021/04/16 05:38:51;;;;;;;12.43;8.18;;;2.40;91.00;;;;;;5053540;28;20032;-67
2021/04/16 05:41:17;;;;;;;14.18;8.95;;;2.40;90.80;;;;;;5050283;28;20071;-66
2021/04/16 05:43:42;;;;;;;12.27;7.95;;;2.40;90.90;;;;;;5042095;28;20025;-68
2021/04/16 05:46:08;;;;;;;12.30;8.60;;;2.50;90.70;;;;;;5052737;28;20013;-66
2021/04/16 05:48:33;;;;;;;12.70;7.82;;;2.40;90.40;;;;;;5068717;28;20025;-67
2021/04/16 05:50:59;;;;;;;10.07;7.25;;;2.40;90.40;;;;;;5053169;28;20402;-67
2021/04/16 05:53:25;;;;;;;8.35;6.97;;;2.40;90.50;;;;;;5052329;28;20024;-67
2021/04/16 05:55:51;;;;;;;9.30;7.30;;;2.40;90.20;;;;;;5053205;28;20502;-66
2021/04/16 05:58:16;;;;;;;9.68;6.35;;;2.40;90.30;;;;;;5050748;28;20036;-67
2021/04/16 06:00:42;;;;;;;11.45;6.93;;;2.50;90.30;;;;;;5052774;28;20029;-66
2021/04/16 06:03:09;;;;;;;10.30;7.03;;;2.60;90.40;;;;;;5053163;28;20114;-67
2021/04/16 06:05:36;;;;;;;9.38;6.45;;;2.60;90.30;;;;;;5052985;28;20021;-66
2021/04/16 06:08:02;;;;;;;6.95;5.85;;;2.70;90.30;;;;;;5047097;28;20028;-67
2021/04/16 06:10:28;;;;;;;10.38;6.93;;;2.60;89.80;;;;;;5053211;28;20025;-67
2021/04/16 06:12:53;;;;;;;8.43;6.75;;;2.60;90.30;;;;;;5052576;28;20029;-67
2021/04/16 06:15:27;;;;;;;9.10;6.18;;;2.60;90.20;;;;;;5050770;28;20483;-66
2021/04/16 06:17:54;;;;;;;9.32;6.25;;;2.60;90.00;;;;;;5051817;28;20047;-68
2021/04/16 06:20:22;;;;;;;9.68;6.95;;;2.60;90.10;;;;;;5052781;28;20036;-67
2021/04/16 06:22:49;;;;;;;11.82;7.18;;;2.50;89.70;;;;;;5052787;28;20025;-66
2021/04/16 06:25:20;;;;;;;9.30;7.18;;;2.60;90.00;;;;;;5052701;28;20029;-67
2021/04/16 06:27:46;;;;;;;;;;;2.50;90.00;;;;;;5052362;28;20569;-66
2021/04/16 06:30:13;;;;;;;10.32;7.32;;;2.60;90.50;;;;;;5052552;28;19987;-67
2021/04/16 06:32:39;;;;;;;9.48;5.75;;;2.70;90.40;;;;;;5052433;28;20087;-67
2021/04/16 06:35:06;;;;;;;13.15;6.20;;;2.70;90.20;;;;;;5052399;28;20049;-66
2021/04/16 06:37:32;;;;;;;8.77;6.03;;;2.70;89.80;;;;;;5051651;28;20097;-67
2021/04/16 06:39:57;;;;;;;10.82;6.70;;;2.80;89.70;;;;;;5051227;28;20044;-67
2021/04/16 06:42:29;;;;;;;10.25;7.07;;;2.70;89.50;;;;;;5067797;28;20032;-66
2021/04/16 06:44:55;;;;;;;;;;;2.80;89.90;;;;;;5051884;28;20021;-67
2021/04/16 06:47:52;;;;;;;10.48;6.90;;;2.70;89.70;;;;;;5051515;28;19911;-66
2021/04/16 06:50:23;;;;;;;10.57;7.70;;;2.70;90.00;;;;;;5052361;28;20033;-67
2021/04/16 06:53:07;;;;;;;;;;;2.80;90.00;;;;;;5050831;28;20025;-67
2021/04/16 06:55:50;;;;;;;12.27;7.65;;;2.80;90.00;;;;;;5042650;28;20389;-66
2021/04/16 06:58:19;;;;;;;10.05;7.03;;;2.80;90.00;;;;;;5043380;28;20037;-67
2021/04/16 07:00:55;;;;;;;10.40;6.90;;;2.80;89.80;;;;;;5051775;28;20029;-66
2021/04/16 07:03:25;;;;;;;7.85;6.35;;;3.00;90.00;;;;;;5036149;28;20416;-66
2021/04/16 07:05:56;;;;;;;9.48;7.03;;;2.90;89.60;;;;;;5052065;28;20017;-67
2021/04/16 07:08:39;;;;;;;8.80;6.85;;;2.80;89.50;;;;;;5051870;28;20078;-67
2021/04/16 07:11:30;;;;;;;13.50;8.02;;;2.80;89.40;;;;;;5051556;28;20037;-67
2021/04/16 07:14:01;;;;;;;9.60;7.53;;;2.90;89.80;;;;;;5051990;28;20027;-66
2021/04/16 07:16:28;;;;;;;10.25;7.70;;;2.90;89.70;;;;;;5051091;28;20259;-66
2021/04/16 07:18:58;;;;;;;11.52;7.35;;;3.00;89.80;;;;;;5051615;28;20041;-66
2021/04/16 07:21:26;;;;;;;9.80;6.95;;;3.00;89.60;;;;;;5050583;28;20021;-67
2021/04/16 07:24:00;;;;;;;8.32;6.60;;;3.00;89.50;;;;;;5051794;28;20028;-68
2021/04/16 07:26:51;;;;;;;9.48;6.75;;;3.00;89.80;;;;;;5051001;28;20032;-68
2021/04/16 07:29:40;;;;;;;9.90;6.97;;;3.10;89.30;;;;;;5050267;28;20020;-67
2021/04/16 07:32:35;;;;;;;8.77;6.65;;;3.10;89.10;;;;;;5050340;28;20395;-66
2021/04/16 07:35:33;;;;;;;10.38;6.60;;;3.20;89.00;;;;;;5051464;28;20510;-66
2021/04/16 07:38:14;;;;;;;13.15;6.30;;;3.10;89.10;;;;;;5043380;28;20021;-66
2021/04/16 07:40:43;;;;;;;9.73;6.30;;;3.10;88.70;;;;;;5051284;28;20140;-66
2021/04/16 07:43:13;;;;;;;10.77;6.13;;;3.10;88.40;;;;;;5052098;28;20137;-66
2021/04/16 07:45:43;;;;;;;9.80;6.85;;;3.20;88.90;;;;;;5055113;28;20154;-66
2021/04/16 07:48:21;;;;;;;8.63;6.03;;;3.20;88.60;;;;;;5050494;28;20491;-66
2021/04/16 07:50:53;;;;;;;6.97;5.70;;;3.20;88.20;;;;;;5063110;28;20021;-68
2021/04/16 07:53:38;;;;;;;10.40;6.20;;;3.20;88.30;;;;;;5051403;28;20418;-66
2021/04/16 07:56:10;;;;;;;9.25;5.75;;;3.20;88.00;;;;;;5053727;28;20455;-66
2021/04/16 07:58:36;;;;;;;9.50;6.72;;;3.30;87.70;;;;;;5057762;28;20033;-67
2021/04/16 08:01:28;;;;;;;10.23;6.20;;;3.20;87.80;;;;;;5071490;28;20033;-66
2021/04/16 08:03:59;;;;;;;10.07;6.95;;;3.20;87.60;;;;;;5054403;28;20100;-67
2021/04/16 08:06:35;;;;;;;9.95;7.15;;;3.30;87.80;;;;;;5044702;28;20072;-68
2021/04/16 08:09:04;;;;;;;10.05;7.60;;;3.30;88.00;;;;;;5049293;28;20529;-68
2021/04/16 08:11:32;;;;;;;10.63;7.88;;;3.30;87.90;;;;;;5050888;28;20028;-68
2021/04/16 08:14:23;;;;;;;11.57;7.75;;;3.40;87.60;;;;;;5040163;28;20047;-67
2021/04/16 08:17:05;;;;;;;10.32;7.15;;;3.40;87.30;;;;;;5045026;28;20033;-65
2021/04/16 08:19:33;;;;;;;9.18;7.30;;;3.30;87.20;;;;;;5036791;28;20025;-67
2021/04/16 08:22:25;;;;;;;13.75;8.70;;;3.40;87.50;;;;;;5052684;28;20095;-69
2021/04/16 08:24:55;;;;;;;12.05;8.40;;;3.30;88.20;;;;;;5072629;28;20522;-69
2021/04/16 08:27:27;;;;;;;13.25;9.00;;;3.30;88.50;;;;;;5045677;28;20103;-68
2021/04/16 08:30:21;;;;;;;13.93;8.15;;;3.30;88.90;;;;;;5051350;28;20017;-69
2021/04/16 08:32:53;;;;;;;12.50;8.65;;;3.30;88.50;;;;;;5057705;28;20128;-68
2021/04/16 08:35:31;;;;;;;12.95;10.00;;;3.40;89.00;;;;;;5034585;28;20159;-69
2021/04/16 08:38:07;;;;;;;12.65;8.52;;;3.40;88.80;;;;;;5049940;28;20078;-69
2021/04/16 08:40:48;;;;;;;15.13;9.68;;;3.40;88.60;;;;;;5051065;28;20510;-68
2021/04/16 08:43:34;;;;;;;10.27;7.05;;;3.40;88.80;;;;;;5050228;28;20021;-69
2021/04/16 08:46:05;;;;;;;10.38;7.15;;;3.50;87.90;;;;;;5051059;28;20013;-69
2021/04/16 08:48:36;;;;;;;13.45;7.88;;;3.50;87.60;;;;;;5050839;28;20364;-68
2021/04/16 08:51:14;;;;;;;10.18;6.78;;;3.50;88.20;;;;;;5048941;28;20032;-69
2021/04/16 08:53:42;;;;;;;13.15;7.38;;;3.50;88.40;;;;;;5050659;28;20392;-68
2021/04/16 08:56:24;;;;;;;9.20;6.25;;;3.60;88.20;;;;;;5049936;28;20070;-66
2021/04/16 08:58:53;;;;;;;7.93;5.63;;;3.70;87.70;;;;;;5050013;28;20071;-68
2021/04/16 09:01:32;;;;;;;10.90;6.68;;;3.70;87.30;;;;;;5045033;28;20025;-68
2021/04/16 09:04:18;;;;;;;7.78;6.00;;;3.90;88.10;;;;;;5050413;28;20021;-69
2021/04/16 09:06:53;;;;;;;10.88;7.43;;;3.90;87.50;;;;;;5051874;28;20073;-69
2021/04/16 09:09:41;;;;;;;8.05;5.70;;;4.00;87.50;;;;;;5048568;28;20021;-70
2021/04/16 09:12:07;;;;;;;10.27;5.85;;;4.00;86.80;;;;;;5050351;28;20021;-67
2021/04/16 09:14:32;;;;;;;10.73;6.40;;;4.00;87.00;;;;;;5050094;28;20086;-67
2021/04/16 09:17:06;;;;;;;7.97;5.70;;;4.00;87.40;;;;;;5052834;28;20033;-68
2021/04/16 09:19:31;;;;;;;8.45;6.10;;;4.10;87.20;;;;;;5050144;28;20009;-68
2021/04/16 09:22:03;;;;;;;9.88;5.57;;;4.10;86.60;;;;;;5050194;28;20356;-68
2021/04/16 09:24:54;;;;;;;7.28;5.22;;;4.40;86.70;;;;;;5043618;28;20105;-68
2021/04/16 09:27:25;;;;;;;8.93;5.50;;;4.40;86.00;;;;;;5045954;28;20013;-67
2021/04/16 09:29:51;;;;;;;;;;;4.50;86.80;;;;;;5059297;28;20424;-68
2021/04/16 09:32:35;;;;;;;6.68;5.32;;;4.60;85.80;;;;;;5066156;28;19904;-68
2021/04/16 09:35:11;;;;;;;8.50;5.40;;;4.80;85.70;;;;;;5053069;28;20025;-67
2021/04/16 09:37:42;;;;;;;7.13;5.47;;;5.20;84.60;;;;;;5052812;28;20489;-68
2021/04/16 09:40:26;;;;;;;10.27;6.15;;;5.00;83.70;;;;;;5053372;28;20108;-68
2021/04/16 09:42:58;;;;;;;7.97;5.03;;;5.00;84.50;;;;;;5053478;28;20033;-68
2021/04/16 09:45:32;;;;;;;9.10;6.20;;;4.90;83.60;;;;;;5052194;28;20044;-67
2021/04/16 09:48:06;;;;;;;10.15;5.70;;;4.80;84.00;;;;;;5052549;28;20021;-68
2021/04/16 09:50:36;;;;;;;14.45;7.03;;;4.80;84.10;;;;;;5053699;28;20025;-68
2021/04/16 09:53:25;;;;;;;9.73;6.00;;;4.70;84.70;;;;;;5035215;28;20562;-67
2021/04/16 09:56:01;;;;;;;7.57;5.47;;;4.60;84.10;;;;;;5056436;28;20025;-67
2021/04/16 09:58:32;;;;;;;11.35;6.45;;;4.80;84.40;;;;;;5058030;28;20044;-67
2021/04/16 10:01:01;;;;;;;10.00;8.00;;;4.90;83.40;;;;;;5049051;28;20032;-68
2021/04/16 10:03:35;;;;;;;12.73;8.32;;;4.80;83.50;;;;;;5068667;28;20028;-67
2021/04/16 10:06:38;;;;;;;13.18;7.40;;;4.70;84.10;;;;;;5058369;28;20087;-65
2021/04/16 10:09:26;;;;;;;16.67;8.73;;;4.70;83.80;;;;;;5053054;28;20049;-66
2021/04/16 10:11:58;;;;;;;10.32;7.10;;;4.80;84.10;;;;;;5053629;28;20064;-67
2021/04/16 10:14:24;;;;;;;10.20;8.05;;;4.80;83.10;;;;;;5064474;28;20120;-66
2021/04/16 10:17:01;;;;;;;12.18;6.85;;;4.80;84.10;;;;;;5059504;28;20096;-67
2021/04/16 10:19:36;;;;;;;9.80;6.47;;;4.90;83.90;;;;;;5037816;28;20025;-67
2021/04/16 10:22:15;;;;;;;10.63;7.13;;;4.90;83.50;;;;;;5042707;28;20025;-69
2021/04/16 10:40:47;;;;;;;10.45;6.13;;;5.30;82.60;;;;;;5052437;28;20055;-65
2021/04/16 10:44:26;;;;;;;12.80;6.72;;;5.30;82.20;;;;;;5052277;28;20059;-66
2021/04/16 10:46:47;;;;;;;12.02;6.32;;;5.30;82.60;;;;;;5052533;28;20104;-66
2021/04/16 11:02:47;;;;;;;10.50;6.38;;;5.50;81.50;;;;;;5052507;28;20024;-67
2021/04/16 12:39:03;;;;;;;17.17;8.65;;;7.80;74.90;;;;;;5050661;28;20071;-68
2021/04/16 12:41:37;;;;;;;13.60;6.72;;;7.90;74.10;;;;;;5050933;28;20027;-68
2021/04/16 12:44:03;;;;;;;9.80;5.65;;;8.10;73.30;;;;;;5050652;28;20056;-68
2021/04/16 12:46:33;;;;;;;19.85;8.68;;;8.10;72.80;;;;;;5048742;28;20032;-69
2021/04/16 12:48:59;;;;;;;12.75;7.10;;;8.00;73.50;;;;;;5050452;28;20059;-69
2021/04/16 12:51:25;;;;;;;53.58;35.83;;;8.00;74.00;;;;;;5050539;28;20052;-67
2021/04/16 12:53:50;;;;;;;221.70;135.82;;;8.20;73.60;;;;;;5050691;28;20017;-69
2021/04/16 12:56:20;;;;;;;22.42;11.00;;;8.10;72.90;;;;;;5048394;28;20402;-69
2021/04/16 12:58:47;;;;;;;15.85;8.48;;;8.10;73.00;;;;;;5048925;28;20036;-69
2021/04/16 13:01:27;;;;;;;12.35;6.30;;;8.10;73.60;;;;;;5065516;28;20025;-69
2021/04/16 13:03:54;;;;;;;9.48;4.72;;;8.40;72.50;;;;;;5049091;28;20032;-68
2021/04/16 13:08:46;;;;;;;11.98;6.13;;;8.70;72.20;;;;;;5080553;22;20057;-68
2021/04/16 13:11:12;;;;;;;13.63;7.75;;;8.60;70.80;;;;;;5041266;28;20171;-67
2021/04/16 13:13:37;;;;;;;21.05;12.23;;;8.60;71.50;;;;;;5046320;28;20021;-68
2021/04/16 13:16:03;;;;;;;16.50;8.35;;;8.80;70.30;;;;;;5042928;28;20029;-67
2021/04/16 13:18:32;;;;;;;17.90;6.10;;;8.80;69.20;;;;;;5051731;28;20067;-68
2021/04/16 13:20:58;;;;;;;13.35;5.90;;;9.10;69.10;;;;;;5035486;28;20033;-67
2021/04/16 13:23:24;;;;;;;18.65;8.45;;;9.50;66.40;;;;;;5047363;28;20033;-68
2021/04/16 13:25:49;;;;;;;21.63;7.63;;;9.80;66.70;;;;;;5041266;28;20057;-67
2021/04/16 13:28:15;;;;;;;24.52;10.50;;;9.80;66.00;;;;;;5034285;28;20068;-67
2021/04/16 13:30:43;;;;;;;17.02;9.27;;;10.10;65.70;;;;;;5033935;28;20029;-68
2021/04/16 13:33:16;;;;;;;17.45;9.60;;;10.10;64.20;;;;;;5048870;28;20060;-69
2021/04/16 13:35:48;;;;;;;8.48;3.50;;;10.10;64.50;;;;;;5040118;28;20021;-70
2021/04/16 13:38:18;;;;;;;12.38;4.90;;;10.30;62.40;;;;;;5039737;28;20041;-70
2021/04/16 13:40:44;;;;;;;11.07;4.95;;;10.40;62.30;;;;;;5049059;28;20119;-69
2021/04/16 13:43:11;;;;;;;8.77;3.75;;;10.50;62.00;;;;;;5034806;28;20103;-69
2021/04/16 13:45:36;;;;;;;18.00;6.15;;;10.80;62.10;;;;;;5047706;28;20109;-70
2021/04/16 13:48:03;;;;;;;12.40;6.68;;;10.80;61.00;;;;;;5041385;28;20436;-69
2021/04/16 13:50:29;;;;;;;16.63;8.80;;;10.90;60.80;;;;;;5040147;28;20033;-70
2021/04/16 13:52:55;;;;;;;10.73;4.95;;;10.60;61.40;;;;;;5049975;28;20525;-70
2021/04/16 13:55:21;;;;;;;10.98;4.57;;;10.30;61.60;;;;;;5035801;28;20020;-69
2021/04/16 13:57:49;;;;;;;15.80;8.27;;;10.20;62.20;;;;;;5052498;28;20032;-70
2021/04/16 14:00:19;;;;;;;24.80;10.20;;;10.00;63.20;;;;;;5041784;28;20030;-70
2021/04/16 14:02:52;;;;;;;17.90;9.77;;;9.90;63.30;;;;;;5047358;28;20079;-69
2021/04/16 14:05:25;;;;;;;22.25;12.15;;;9.70;64.10;;;;;;5021076;28;20027;-69
2021/04/16 14:07:52;;;;;;;18.52;8.50;;;9.70;65.70;;;;;;5045001;28;20112;-69
2021/04/16 14:10:24;;;;;;;18.00;9.20;;;9.60;64.30;;;;;;5045432;28;20029;-69
2021/04/16 14:12:50;;;;;;;19.25;9.63;;;9.70;64.30;;;;;;5035896;28;20068;-70
2021/04/16 14:15:18;;;;;;;14.88;9.27;;;9.90;65.10;;;;;;5020144;28;20037;-69
2021/04/16 14:17:59;;;;;;;31.13;17.73;;;10.20;62.80;;;;;;5045264;28;20029;-69
2021/04/16 14:20:37;;;;;;;12.35;4.72;;;10.20;60.80;;;;;;5045971;28;20025;-68
2021/04/16 14:23:05;;;;;;;6.60;3.97;;;10.20;62.40;;;;;;5037235;28;20499;-68
2021/04/16 14:25:36;;;;;;;16.23;7.32;;;10.40;62.30;;;;;;5048900;28;20044;-69
2021/04/16 14:28:06;;;;;;;15.00;8.60;;;10.40;62.60;;;;;;5043894;28;20071;-69
2021/04/16 14:30:34;;;;;;;14.35;7.65;;;10.40;61.00;;;;;;5038565;28;20108;-70
2021/04/16 14:33:02;;;;;;;21.95;9.20;;;10.30;62.10;;;;;;5033805;28;20033;-69
2021/04/16 14:35:32;;;;;;;11.30;4.55;;;10.50;61.60;;;;;;5038339;28;20025;-69
2021/04/16 14:37:59;;;;;;;9.18;3.83;;;10.30;61.10;;;;;;5043023;28;20025;-70
2021/04/16 14:40:25;;;;;;;20.45;10.32;;;10.30;61.50;;;;;;5033085;28;20029;-69
2021/04/16 14:42:51;;;;;;;8.32;4.07;;;10.10;62.40;;;;;;5046334;28;20033;-70
2021/04/16 14:45:24;;;;;;;10.60;4.80;;;9.90;61.60;;;;;;5020789;28;20025;-68
2021/04/16 14:47:50;;;;;;;7.90;4.15;;;9.80;62.00;;;;;;5050674;28;20557;-69
2021/04/16 14:50:16;;;;;;;9.88;3.63;;;9.80;62.70;;;;;;5049592;28;20071;-70
2021/04/16 14:52:43;;;;;;;5.65;3.60;;;9.60;62.70;;;;;;5054214;28;20617;-70
2021/04/16 14:55:15;;;;;;;9.25;4.18;;;9.60;62.80;;;;;;5039240;28;20036;-70
2021/04/16 14:57:41;;;;;;;19.10;9.43;;;9.50;63.60;;;;;;5051159;28;20071;-70
2021/04/16 15:00:13;;;;;;;20.13;9.73;;;9.50;64.30;;;;;;5041229;28;20025;-70
2021/04/16 15:02:38;;;;;;;11.98;6.40;;;9.70;64.50;;;;;;5042916;28;20067;-67
2021/04/16 15:05:05;;;;;;;9.65;4.95;;;9.80;63.20;;;;;;5034505;28;20030;-69
2021/04/16 15:07:42;;;;;;;16.73;7.43;;;9.80;62.80;;;;;;5050554;28;20025;-69
2021/04/16 15:10:14;;;;;;;15.80;6.45;;;10.00;62.00;;;;;;5049010;28;20078;-70